sensor_id;sensor_type;location;lat;lon;timestamp;P1;durP1;ratioP1;P2;durP2;ratioP2
57217;SDS011;43078;52.972;6.482;2022-12-29T00:01:36;6.35;;;3.22;;
57217;SDS011;43078;52.972;6.482;2022-12-29T00:04:03;6.70;;;3.65;;
57217;SDS011;43078;52.972;6.482;2022-12-29T00:06:29;4.93;;;3.03;;
57217;SDS011;43078;52.972;6.482;2022-12-29T00:08:55;6.32;;;3.58;;
57217;SDS011;43078;52.972;6.482;2022-12-29T00:11:22;6.72;;;3.20;;
57217;SDS011;43078;52.972;6.482;2022-12-29T00:13:50;5.65;;;3.50;;
57217;SDS011;43078;52.972;6.482;2022-12-29T00:16:35;5.78;;;3.50;;
57217;SDS011;43078;52.972;6.482;2022-12-29T00:19:02;5.82;;;3.85;;
57217;SDS011;43078;52.972;6.482;2022-12-29T00:21:29;7.43;;;3.78;;
57217;SDS011;43078;52.972;6.482;2022-12-29T00:24:17;6.20;;;3.50;;
57217;SDS011;43078;52.972;6.482;2022-12-29T00:29:40;4.82;;;3.33;;
57217;SDS011;43078;52.972;6.482;2022-12-29T00:32:24;5.63;;;3.70;;
57217;SDS011;43078;52.972;6.482;2022-12-29T00:35:11;6.68;;;3.72;;
57217;SDS011;43078;52.972;6.482;2022-12-29T00:37:43;7.18;;;3.45;;
57217;SDS011;43078;52.972;6.482;2022-12-29T00:40:31;5.78;;;3.45;;
57217;SDS011;43078;52.972;6.482;2022-12-29T00:43:15;5.97;;;3.42;;
57217;SDS011;43078;52.972;6.482;2022-12-29T00:45:59;7.00;;;3.63;;
57217;SDS011;43078;52.972;6.482;2022-12-29T00:48:25;7.95;;;3.90;;
57217;SDS011;43078;52.972;6.482;2022-12-29T00:51:09;6.68;;;3.60;;
57217;SDS011;43078;52.972;6.482;2022-12-29T00:53:34;5.38;;;3.25;;
57217;SDS011;43078;52.972;6.482;2022-12-29T00:56:00;6.32;;;3.25;;
57217;SDS011;43078;52.972;6.482;2022-12-29T00:58:29;5.93;;;3.50;;
57217;SDS011;43078;52.972;6.482;2022-12-29T01:01:02;5.55;;;3.60;;
57217;SDS011;43078;52.972;6.482;2022-12-29T01:03:33;7.80;;;3.38;;
57217;SDS011;43078;52.972;6.482;2022-12-29T01:06:00;6.55;;;3.20;;
57217;SDS011;43078;52.972;6.482;2022-12-29T01:08:29;6.32;;;3.15;;
57217;SDS011;43078;52.972;6.482;2022-12-29T01:11:02;5.88;;;3.00;;
57217;SDS011;43078;52.972;6.482;2022-12-29T01:13:29;5.25;;;3.35;;
57217;SDS011;43078;52.972;6.482;2022-12-29T01:15:55;5.32;;;3.17;;
57217;SDS011;43078;52.972;6.482;2022-12-29T01:18:21;7.00;;;3.33;;
57217;SDS011;43078;52.972;6.482;2022-12-29T01:20:47;5.57;;;2.97;;
57217;SDS011;43078;52.972;6.482;2022-12-29T01:23:13;5.53;;;3.03;;
57217;SDS011;43078;52.972;6.482;2022-12-29T01:25:39;5.88;;;3.00;;
57217;SDS011;43078;52.972;6.482;2022-12-29T01:28:05;5.32;;;3.05;;
57217;SDS011;43078;52.972;6.482;2022-12-29T01:30:33;5.03;;;2.60;;
57217;SDS011;43078;52.972;6.482;2022-12-29T01:32:59;6.05;;;2.90;;
57217;SDS011;43078;52.972;6.482;2022-12-29T01:35:25;5.97;;;2.90;;
57217;SDS011;43078;52.972;6.482;2022-12-29T01:37:50;6.13;;;2.60;;
57217;SDS011;43078;52.972;6.482;2022-12-29T01:40:16;5.63;;;2.60;;
57217;SDS011;43078;52.972;6.482;2022-12-29T01:42:41;5.28;;;2.75;;
57217;SDS011;43078;52.972;6.482;2022-12-29T01:45:17;5.72;;;2.58;;
57217;SDS011;43078;52.972;6.482;2022-12-29T01:47:44;6.32;;;2.70;;
57217;SDS011;43078;52.972;6.482;2022-12-29T01:50:31;5.45;;;2.60;;
57217;SDS011;43078;52.972;6.482;2022-12-29T01:53:02;5.97;;;2.53;;
57217;SDS011;43078;52.972;6.482;2022-12-29T01:55:33;4.67;;;2.47;;
57217;SDS011;43078;52.972;6.482;2022-12-29T01:58:04;5.05;;;2.55;;
57217;SDS011;43078;52.972;6.482;2022-12-29T02:00:31;5.57;;;2.60;;
57217;SDS011;43078;52.972;6.482;2022-12-29T02:02:57;4.97;;;2.63;;
57217;SDS011;43078;52.972;6.482;2022-12-29T02:05:25;5.65;;;2.55;;
57217;SDS011;43078;52.972;6.482;2022-12-29T02:08:12;4.82;;;2.60;;
57217;SDS011;43078;52.972;6.482;2022-12-29T02:10:38;6.07;;;2.85;;
57217;SDS011;43078;52.972;6.482;2022-12-29T02:13:05;5.93;;;2.70;;
57217;SDS011;43078;52.972;6.482;2022-12-29T02:15:36;5.22;;;2.50;;
57217;SDS011;43078;52.972;6.482;2022-12-29T02:18:14;6.30;;;2.15;;
57217;SDS011;43078;52.972;6.482;2022-12-29T02:34:29;6.82;;;2.50;;
57217;SDS011;43078;52.972;6.482;2022-12-29T02:40:07;5.85;;;1.90;;
57217;SDS011;43078;52.972;6.482;2022-12-29T02:43:06;8.65;;;2.28;;
57217;SDS011;43078;52.972;6.482;2022-12-29T02:48:09;4.15;;;2.05;;
57217;SDS011;43078;52.972;6.482;2022-12-29T02:53:26;6.03;;;2.38;;
57217;SDS011;43078;52.972;6.482;2022-12-29T02:56:11;4.30;;;1.95;;
57217;SDS011;43078;52.972;6.482;2022-12-29T02:58:37;4.28;;;1.80;;
57217;SDS011;43078;52.972;6.482;2022-12-29T03:01:16;4.78;;;2.00;;
57217;SDS011;43078;52.972;6.482;2022-12-29T03:03:57;4.28;;;2.00;;
57217;SDS011;43078;52.972;6.482;2022-12-29T03:09:26;3.63;;;1.90;;
57217;SDS011;43078;52.972;6.482;2022-12-29T03:12:24;4.50;;;1.60;;
57217;SDS011;43078;52.972;6.482;2022-12-29T03:15:24;4.35;;;1.60;;
57217;SDS011;43078;52.972;6.482;2022-12-29T03:18:23;3.80;;;1.60;;
57217;SDS011;43078;52.972;6.482;2022-12-29T03:21:00;4.32;;;1.38;;
57217;SDS011;43078;52.972;6.482;2022-12-29T03:23:34;5.20;;;1.52;;
57217;SDS011;43078;52.972;6.482;2022-12-29T03:26:02;3.97;;;1.50;;
57217;SDS011;43078;52.972;6.482;2022-12-29T03:28:37;4.10;;;1.30;;
57217;SDS011;43078;52.972;6.482;2022-12-29T03:31:06;3.50;;;1.38;;
57217;SDS011;43078;52.972;6.482;2022-12-29T03:33:37;2.78;;;1.40;;
57217;SDS011;43078;52.972;6.482;2022-12-29T03:36:04;4.82;;;1.30;;
57217;SDS011;43078;52.972;6.482;2022-12-29T03:38:35;5.03;;;1.52;;
57217;SDS011;43078;52.972;6.482;2022-12-29T03:41:11;2.97;;;1.20;;
57217;SDS011;43078;52.972;6.482;2022-12-29T03:43:45;3.75;;;1.38;;
57217;SDS011;43078;52.972;6.482;2022-12-29T03:46:11;3.78;;;1.17;;
57217;SDS011;43078;52.972;6.482;2022-12-29T03:48:36;3.65;;;1.20;;
57217;SDS011;43078;52.972;6.482;2022-12-29T03:51:02;4.85;;;1.55;;
57217;SDS011;43078;52.972;6.482;2022-12-29T03:53:28;4.55;;;1.48;;
57217;SDS011;43078;52.972;6.482;2022-12-29T03:55:53;4.80;;;1.20;;
57217;SDS011;43078;52.972;6.482;2022-12-29T03:58:19;4.75;;;1.35;;
57217;SDS011;43078;52.972;6.482;2022-12-29T04:00:44;4.78;;;1.30;;
57217;SDS011;43078;52.972;6.482;2022-12-29T04:03:10;3.90;;;1.35;;
57217;SDS011;43078;52.972;6.482;2022-12-29T04:05:36;5.28;;;1.20;;
57217;SDS011;43078;52.972;6.482;2022-12-29T04:08:01;7.32;;;1.60;;
57217;SDS011;43078;52.972;6.482;2022-12-29T04:10:27;5.72;;;1.20;;
57217;SDS011;43078;52.972;6.482;2022-12-29T04:12:52;6.63;;;1.15;;
57217;SDS011;43078;52.972;6.482;2022-12-29T04:15:18;7.47;;;1.38;;
57217;SDS011;43078;52.972;6.482;2022-12-29T04:17:43;4.15;;;0.90;;
57217;SDS011;43078;52.972;6.482;2022-12-29T04:20:09;6.15;;;1.10;;
57217;SDS011;43078;52.972;6.482;2022-12-29T04:23:00;3.30;;;0.85;;
57217;SDS011;43078;52.972;6.482;2022-12-29T04:25:30;7.47;;;1.00;;
57217;SDS011;43078;52.972;6.482;2022-12-29T04:27:56;6.78;;;1.20;;
57217;SDS011;43078;52.972;6.482;2022-12-29T04:30:21;6.53;;;1.00;;
57217;SDS011;43078;52.972;6.482;2022-12-29T04:32:47;5.07;;;0.95;;
57217;SDS011;43078;52.972;6.482;2022-12-29T04:35:13;3.22;;;0.85;;
57217;SDS011;43078;52.972;6.482;2022-12-29T04:37:38;3.88;;;0.68;;
57217;SDS011;43078;52.972;6.482;2022-12-29T04:40:04;4.28;;;0.80;;
57217;SDS011;43078;52.972;6.482;2022-12-29T04:42:30;4.20;;;0.85;;
57217;SDS011;43078;52.972;6.482;2022-12-29T04:44:55;6.55;;;1.00;;
57217;SDS011;43078;52.972;6.482;2022-12-29T04:47:21;6.32;;;1.00;;
57217;SDS011;43078;52.972;6.482;2022-12-29T04:49:47;6.78;;;1.00;;
57217;SDS011;43078;52.972;6.482;2022-12-29T04:52:12;4.75;;;0.85;;
57217;SDS011;43078;52.972;6.482;2022-12-29T04:54:38;3.72;;;0.82;;
57217;SDS011;43078;52.972;6.482;2022-12-29T04:57:04;5.25;;;0.88;;
57217;SDS011;43078;52.972;6.482;2022-12-29T04:59:30;6.65;;;0.98;;
57217;SDS011;43078;52.972;6.482;2022-12-29T05:01:56;6.65;;;0.95;;
57217;SDS011;43078;52.972;6.482;2022-12-29T05:04:21;6.22;;;1.30;;
57217;SDS011;43078;52.972;6.482;2022-12-29T05:06:47;7.72;;;1.13;;
57217;SDS011;43078;52.972;6.482;2022-12-29T05:09:12;7.75;;;1.15;;
57217;SDS011;43078;52.972;6.482;2022-12-29T05:11:38;9.23;;;1.58;;
57217;SDS011;43078;52.972;6.482;2022-12-29T05:14:04;9.40;;;1.63;;
57217;SDS011;43078;52.972;6.482;2022-12-29T05:16:29;7.22;;;1.42;;
57217;SDS011;43078;52.972;6.482;2022-12-29T05:18:55;7.82;;;1.50;;
57217;SDS011;43078;52.972;6.482;2022-12-29T05:21:20;11.50;;;1.95;;
57217;SDS011;43078;52.972;6.482;2022-12-29T05:23:46;9.07;;;1.60;;
57217;SDS011;43078;52.972;6.482;2022-12-29T05:26:12;10.88;;;1.58;;
57217;SDS011;43078;52.972;6.482;2022-12-29T05:28:37;11.10;;;1.60;;
57217;SDS011;43078;52.972;6.482;2022-12-29T05:31:03;10.02;;;1.52;;
57217;SDS011;43078;52.972;6.482;2022-12-29T05:33:29;10.38;;;1.55;;
57217;SDS011;43078;52.972;6.482;2022-12-29T05:35:54;10.57;;;1.80;;
57217;SDS011;43078;52.972;6.482;2022-12-29T05:38:20;9.85;;;1.83;;
57217;SDS011;43078;52.972;6.482;2022-12-29T05:40:45;12.80;;;1.90;;
57217;SDS011;43078;52.972;6.482;2022-12-29T05:43:11;11.55;;;1.77;;
57217;SDS011;43078;52.972;6.482;2022-12-29T05:45:37;9.65;;;1.67;;
57217;SDS011;43078;52.972;6.482;2022-12-29T05:48:03;10.07;;;1.60;;
57217;SDS011;43078;52.972;6.482;2022-12-29T05:50:28;10.35;;;1.60;;
57217;SDS011;43078;52.972;6.482;2022-12-29T05:52:54;7.90;;;1.60;;
57217;SDS011;43078;52.972;6.482;2022-12-29T05:55:20;9.00;;;1.45;;
57217;SDS011;43078;52.972;6.482;2022-12-29T05:57:45;8.32;;;1.38;;
57217;SDS011;43078;52.972;6.482;2022-12-29T06:00:11;6.88;;;1.23;;
57217;SDS011;43078;52.972;6.482;2022-12-29T06:02:37;6.30;;;1.20;;
57217;SDS011;43078;52.972;6.482;2022-12-29T06:05:03;11.85;;;1.50;;
57217;SDS011;43078;52.972;6.482;2022-12-29T06:07:29;10.25;;;1.50;;
57217;SDS011;43078;52.972;6.482;2022-12-29T06:09:54;9.65;;;1.55;;
57217;SDS011;43078;52.972;6.482;2022-12-29T06:12:20;7.20;;;1.10;;
57217;SDS011;43078;52.972;6.482;2022-12-29T06:14:45;11.38;;;1.45;;
57217;SDS011;43078;52.972;6.482;2022-12-29T06:17:11;8.88;;;1.50;;
57217;SDS011;43078;52.972;6.482;2022-12-29T06:19:36;13.27;;;1.95;;
57217;SDS011;43078;52.972;6.482;2022-12-29T06:22:02;13.10;;;1.70;;
57217;SDS011;43078;52.972;6.482;2022-12-29T06:24:28;8.82;;;1.67;;
57217;SDS011;43078;52.972;6.482;2022-12-29T06:26:53;10.60;;;1.73;;
57217;SDS011;43078;52.972;6.482;2022-12-29T06:29:19;10.68;;;1.92;;
57217;SDS011;43078;52.972;6.482;2022-12-29T06:31:45;8.75;;;1.85;;
57217;SDS011;43078;52.972;6.482;2022-12-29T06:34:11;11.60;;;2.35;;
57217;SDS011;43078;52.972;6.482;2022-12-29T06:36:38;9.43;;;1.95;;
57217;SDS011;43078;52.972;6.482;2022-12-29T06:39:04;10.30;;;1.85;;
57217;SDS011;43078;52.972;6.482;2022-12-29T06:41:30;15.57;;;2.10;;
57217;SDS011;43078;52.972;6.482;2022-12-29T06:43:56;13.88;;;1.92;;
57217;SDS011;43078;52.972;6.482;2022-12-29T06:46:22;9.20;;;1.70;;
57217;SDS011;43078;52.972;6.482;2022-12-29T06:48:47;10.10;;;1.75;;
57217;SDS011;43078;52.972;6.482;2022-12-29T06:51:13;12.73;;;1.80;;
57217;SDS011;43078;52.972;6.482;2022-12-29T06:53:39;14.63;;;2.00;;
57217;SDS011;43078;52.972;6.482;2022-12-29T06:56:04;14.07;;;1.90;;
57217;SDS011;43078;52.972;6.482;2022-12-29T06:58:30;11.55;;;1.88;;
57217;SDS011;43078;52.972;6.482;2022-12-29T07:00:56;14.02;;;2.13;;
57217;SDS011;43078;52.972;6.482;2022-12-29T07:03:21;13.70;;;2.20;;
57217;SDS011;43078;52.972;6.482;2022-12-29T07:05:47;11.63;;;1.90;;
57217;SDS011;43078;52.972;6.482;2022-12-29T07:08:12;12.07;;;2.00;;
57217;SDS011;43078;52.972;6.482;2022-12-29T07:10:39;14.65;;;2.45;;
57217;SDS011;43078;52.972;6.482;2022-12-29T07:13:04;14.02;;;2.38;;
57217;SDS011;43078;52.972;6.482;2022-12-29T07:15:32;14.00;;;2.42;;
57217;SDS011;43078;52.972;6.482;2022-12-29T07:17:58;9.23;;;1.73;;
57217;SDS011;43078;52.972;6.482;2022-12-29T07:20:24;12.80;;;2.35;;
57217;SDS011;43078;52.972;6.482;2022-12-29T07:22:50;10.52;;;1.98;;
57217;SDS011;43078;52.972;6.482;2022-12-29T07:25:15;13.75;;;2.28;;
57217;SDS011;43078;52.972;6.482;2022-12-29T07:27:41;10.75;;;1.75;;
57217;SDS011;43078;52.972;6.482;2022-12-29T07:30:07;13.00;;;2.00;;
57217;SDS011;43078;52.972;6.482;2022-12-29T07:32:33;12.23;;;1.98;;
57217;SDS011;43078;52.972;6.482;2022-12-29T07:34:59;10.05;;;2.00;;
57217;SDS011;43078;52.972;6.482;2022-12-29T07:37:28;16.67;;;2.10;;
57217;SDS011;43078;52.972;6.482;2022-12-29T07:39:53;14.82;;;2.20;;
57217;SDS011;43078;52.972;6.482;2022-12-29T07:42:19;13.77;;;2.40;;
57217;SDS011;43078;52.972;6.482;2022-12-29T07:44:44;15.50;;;1.95;;
57217;SDS011;43078;52.972;6.482;2022-12-29T07:47:10;11.77;;;2.10;;
57217;SDS011;43078;52.972;6.482;2022-12-29T07:49:36;12.18;;;2.10;;
57217;SDS011;43078;52.972;6.482;2022-12-29T07:52:01;13.77;;;2.17;;
57217;SDS011;43078;52.972;6.482;2022-12-29T07:54:27;14.75;;;2.20;;
57217;SDS011;43078;52.972;6.482;2022-12-29T07:56:53;14.77;;;2.13;;
57217;SDS011;43078;52.972;6.482;2022-12-29T07:59:18;11.32;;;2.28;;
57217;SDS011;43078;52.972;6.482;2022-12-29T08:01:44;12.57;;;2.20;;
57217;SDS011;43078;52.972;6.482;2022-12-29T08:04:10;10.18;;;2.00;;
57217;SDS011;43078;52.972;6.482;2022-12-29T08:06:35;11.18;;;1.95;;
57217;SDS011;43078;52.972;6.482;2022-12-29T08:09:02;15.80;;;2.22;;
57217;SDS011;43078;52.972;6.482;2022-12-29T08:11:28;12.55;;;2.35;;
57217;SDS011;43078;52.972;6.482;2022-12-29T08:13:54;17.95;;;2.63;;
57217;SDS011;43078;52.972;6.482;2022-12-29T08:16:20;14.80;;;2.30;;
57217;SDS011;43078;52.972;6.482;2022-12-29T08:18:45;15.15;;;2.47;;
57217;SDS011;43078;52.972;6.482;2022-12-29T08:21:11;16.15;;;3.00;;
57217;SDS011;43078;52.972;6.482;2022-12-29T08:23:36;14.88;;;2.20;;
57217;SDS011;43078;52.972;6.482;2022-12-29T08:26:03;16.45;;;2.53;;
57217;SDS011;43078;52.972;6.482;2022-12-29T08:28:30;19.20;;;2.53;;
57217;SDS011;43078;52.972;6.482;2022-12-29T08:30:57;16.73;;;2.30;;
57217;SDS011;43078;52.972;6.482;2022-12-29T08:33:24;17.58;;;2.60;;
57217;SDS011;43078;52.972;6.482;2022-12-29T08:35:50;17.27;;;2.97;;
57217;SDS011;43078;52.972;6.482;2022-12-29T08:38:16;14.43;;;2.42;;
57217;SDS011;43078;52.972;6.482;2022-12-29T08:40:42;15.88;;;2.65;;
57217;SDS011;43078;52.972;6.482;2022-12-29T08:43:08;16.05;;;2.83;;
57217;SDS011;43078;52.972;6.482;2022-12-29T08:45:33;18.50;;;2.95;;
57217;SDS011;43078;52.972;6.482;2022-12-29T08:47:59;19.60;;;2.63;;
57217;SDS011;43078;52.972;6.482;2022-12-29T08:50:25;19.92;;;3.00;;
57217;SDS011;43078;52.972;6.482;2022-12-29T08:52:50;17.75;;;3.20;;
57217;SDS011;43078;52.972;6.482;2022-12-29T08:55:16;17.70;;;2.60;;
57217;SDS011;43078;52.972;6.482;2022-12-29T08:57:41;18.08;;;3.05;;
57217;SDS011;43078;52.972;6.482;2022-12-29T09:00:07;16.55;;;3.05;;
57217;SDS011;43078;52.972;6.482;2022-12-29T09:02:33;18.60;;;2.90;;
57217;SDS011;43078;52.972;6.482;2022-12-29T09:04:59;19.08;;;2.90;;
57217;SDS011;43078;52.972;6.482;2022-12-29T09:07:26;18.08;;;2.78;;
57217;SDS011;43078;52.972;6.482;2022-12-29T09:09:51;19.92;;;2.75;;
57217;SDS011;43078;52.972;6.482;2022-12-29T09:12:17;17.30;;;2.60;;
57217;SDS011;43078;52.972;6.482;2022-12-29T09:14:43;14.15;;;2.33;;
57217;SDS011;43078;52.972;6.482;2022-12-29T09:17:10;15.20;;;2.50;;
57217;SDS011;43078;52.972;6.482;2022-12-29T09:19:54;13.88;;;2.50;;
57217;SDS011;43078;52.972;6.482;2022-12-29T09:22:20;18.58;;;2.90;;
57217;SDS011;43078;52.972;6.482;2022-12-29T09:24:46;19.33;;;3.03;;
57217;SDS011;43078;52.972;6.482;2022-12-29T09:27:11;13.48;;;2.53;;
57217;SDS011;43078;52.972;6.482;2022-12-29T09:29:37;12.50;;;2.15;;
57217;SDS011;43078;52.972;6.482;2022-12-29T09:32:03;13.93;;;2.42;;
57217;SDS011;43078;52.972;6.482;2022-12-29T09:34:29;16.17;;;2.60;;
57217;SDS011;43078;52.972;6.482;2022-12-29T09:36:54;14.43;;;2.60;;
57217;SDS011;43078;52.972;6.482;2022-12-29T09:39:21;17.30;;;2.80;;
57217;SDS011;43078;52.972;6.482;2022-12-29T09:42:12;15.30;;;2.67;;
57217;SDS011;43078;52.972;6.482;2022-12-29T09:47:25;18.65;;;2.63;;
57217;SDS011;43078;52.972;6.482;2022-12-29T09:52:21;14.80;;;2.55;;
57217;SDS011;43078;52.972;6.482;2022-12-29T09:54:57;16.40;;;2.30;;
57217;SDS011;43078;52.972;6.482;2022-12-29T09:58:03;19.23;;;2.70;;
57217;SDS011;43078;52.972;6.482;2022-12-29T10:14:57;14.60;;;2.50;;
57217;SDS011;43078;52.972;6.482;2022-12-29T10:17:46;15.07;;;2.92;;
57217;SDS011;43078;52.972;6.482;2022-12-29T10:25:44;15.88;;;2.50;;
57217;SDS011;43078;52.972;6.482;2022-12-29T10:28:23;17.10;;;4.00;;
57217;SDS011;43078;52.972;6.482;2022-12-29T10:31:13;14.60;;;2.55;;
57217;SDS011;43078;52.972;6.482;2022-12-29T10:33:45;13.48;;;2.45;;
57217;SDS011;43078;52.972;6.482;2022-12-29T10:36:25;12.82;;;2.00;;
57217;SDS011;43078;52.972;6.482;2022-12-29T10:42:11;14.73;;;2.30;;
57217;SDS011;43078;52.972;6.482;2022-12-29T10:44:39;12.80;;;2.22;;
57217;SDS011;43078;52.972;6.482;2022-12-29T10:47:10;21.58;;;2.83;;
57217;SDS011;43078;52.972;6.482;2022-12-29T10:49:41;12.50;;;2.40;;
57217;SDS011;43078;52.972;6.482;2022-12-29T10:52:10;14.77;;;2.25;;
57217;SDS011;43078;52.972;6.482;2022-12-29T10:54:48;13.30;;;2.25;;
57217;SDS011;43078;52.972;6.482;2022-12-29T10:57:28;15.52;;;1.90;;
57217;SDS011;43078;52.972;6.482;2022-12-29T10:59:59;12.20;;;2.50;;
57217;SDS011;43078;52.972;6.482;2022-12-29T11:08:25;12.65;;;2.33;;
57217;SDS011;43078;52.972;6.482;2022-12-29T11:11:06;12.43;;;2.13;;
57217;SDS011;43078;52.972;6.482;2022-12-29T11:13:35;11.60;;;2.15;;
57217;SDS011;43078;52.972;6.482;2022-12-29T11:16:14;10.45;;;1.85;;
57217;SDS011;43078;52.972;6.482;2022-12-29T11:18:48;14.25;;;2.33;;
57217;SDS011;43078;52.972;6.482;2022-12-29T11:21:25;14.10;;;2.15;;
57217;SDS011;43078;52.972;6.482;2022-12-29T11:24:08;13.10;;;2.13;;
57217;SDS011;43078;52.972;6.482;2022-12-29T11:26:51;15.25;;;2.38;;
57217;SDS011;43078;52.972;6.482;2022-12-29T11:29:37;11.77;;;2.30;;
57217;SDS011;43078;52.972;6.482;2022-12-29T11:32:18;14.10;;;2.53;;
57217;SDS011;43078;52.972;6.482;2022-12-29T11:34:51;16.83;;;2.67;;
57217;SDS011;43078;52.972;6.482;2022-12-29T11:37:18;18.17;;;3.53;;
57217;SDS011;43078;52.972;6.482;2022-12-29T11:45:17;14.77;;;2.80;;
57217;SDS011;43078;52.972;6.482;2022-12-29T11:47:56;20.88;;;3.00;;
57217;SDS011;43078;52.972;6.482;2022-12-29T11:50:25;20.92;;;3.33;;
57217;SDS011;43078;52.972;6.482;2022-12-29T11:56:06;22.70;;;3.70;;
57217;SDS011;43078;52.972;6.482;2022-12-29T11:58:36;19.05;;;3.60;;
57217;SDS011;43078;52.972;6.482;2022-12-29T12:01:07;24.30;;;3.67;;
57217;SDS011;43078;52.972;6.482;2022-12-29T12:04:01;23.00;;;3.25;;
57217;SDS011;43078;52.972;6.482;2022-12-29T12:06:33;23.73;;;4.13;;
57217;SDS011;43078;52.972;6.482;2022-12-29T12:09:14;29.67;;;4.22;;
57217;SDS011;43078;52.972;6.482;2022-12-29T12:11:48;23.85;;;3.75;;
57217;SDS011;43078;52.972;6.482;2022-12-29T12:14:34;26.58;;;4.25;;
57217;SDS011;43078;52.972;6.482;2022-12-29T12:17:10;25.55;;;4.53;;
57217;SDS011;43078;52.972;6.482;2022-12-29T12:19:46;21.90;;;3.90;;
57217;SDS011;43078;52.972;6.482;2022-12-29T12:22:16;21.17;;;3.70;;
57217;SDS011;43078;52.972;6.482;2022-12-29T12:25:00;25.25;;;4.15;;
57217;SDS011;43078;52.972;6.482;2022-12-29T12:27:43;22.67;;;3.80;;
57217;SDS011;43078;52.972;6.482;2022-12-29T12:30:27;21.75;;;3.88;;
57217;SDS011;43078;52.972;6.482;2022-12-29T12:33:12;23.83;;;3.85;;
57217;SDS011;43078;52.972;6.482;2022-12-29T12:41:12;23.42;;;3.47;;
57217;SDS011;43078;52.972;6.482;2022-12-29T12:43:47;20.15;;;3.78;;
57217;SDS011;43078;52.972;6.482;2022-12-29T12:54:25;23.70;;;3.35;;
57217;SDS011;43078;52.972;6.482;2022-12-29T12:57:28;22.73;;;3.60;;
57217;SDS011;43078;52.972;6.482;2022-12-29T13:00:16;22.77;;;6.03;;
57217;SDS011;43078;52.972;6.482;2022-12-29T13:10:47;20.25;;;3.30;;
57217;SDS011;43078;52.972;6.482;2022-12-29T13:18:42;18.65;;;3.65;;
57217;SDS011;43078;52.972;6.482;2022-12-29T13:27:32;17.13;;;2.58;;
57217;SDS011;43078;52.972;6.482;2022-12-29T13:30:39;15.68;;;2.85;;
57217;SDS011;43078;52.972;6.482;2022-12-29T13:36:15;13.30;;;2.53;;
57217;SDS011;43078;52.972;6.482;2022-12-29T13:38:57;14.07;;;2.50;;
57217;SDS011;43078;52.972;6.482;2022-12-29T13:41:42;15.80;;;4.25;;
57217;SDS011;43078;52.972;6.482;2022-12-29T13:44:14;15.18;;;2.95;;
57217;SDS011;43078;52.972;6.482;2022-12-29T13:46:43;13.18;;;2.40;;
57217;SDS011;43078;52.972;6.482;2022-12-29T13:51:48;14.63;;;2.90;;
57217;SDS011;43078;52.972;6.482;2022-12-29T13:54:24;20.58;;;3.30;;
57217;SDS011;43078;52.972;6.482;2022-12-29T14:02:21;18.98;;;3.25;;
57217;SDS011;43078;52.972;6.482;2022-12-29T14:05:26;14.63;;;2.63;;
57217;SDS011;43078;52.972;6.482;2022-12-29T14:07:59;16.90;;;3.00;;
57217;SDS011;43078;52.972;6.482;2022-12-29T14:10:34;16.05;;;2.83;;
57217;SDS011;43078;52.972;6.482;2022-12-29T14:13:21;20.25;;;3.35;;
57217;SDS011;43078;52.972;6.482;2022-12-29T14:15:50;17.70;;;4.00;;
57217;SDS011;43078;52.972;6.482;2022-12-29T14:18:29;15.63;;;2.60;;
57217;SDS011;43078;52.972;6.482;2022-12-29T14:20:58;16.98;;;2.75;;
57217;SDS011;43078;52.972;6.482;2022-12-29T14:23:41;17.10;;;2.55;;
57217;SDS011;43078;52.972;6.482;2022-12-29T14:26:33;16.48;;;2.42;;
57217;SDS011;43078;52.972;6.482;2022-12-29T14:28:54;20.52;;;2.53;;
57217;SDS011;43078;52.972;6.482;2022-12-29T14:36:52;12.73;;;2.38;;
57217;SDS011;43078;52.972;6.482;2022-12-29T14:41:59;16.90;;;2.58;;
57217;SDS011;43078;52.972;6.482;2022-12-29T14:44:25;18.08;;;2.63;;
57217;SDS011;43078;52.972;6.482;2022-12-29T14:49:20;12.63;;;2.10;;
57217;SDS011;43078;52.972;6.482;2022-12-29T14:52:04;13.55;;;2.53;;
57217;SDS011;43078;52.972;6.482;2022-12-29T14:54:40;15.18;;;2.35;;
57217;SDS011;43078;52.972;6.482;2022-12-29T14:57:13;14.60;;;2.10;;
57217;SDS011;43078;52.972;6.482;2022-12-29T14:59:44;15.65;;;2.22;;
57217;SDS011;43078;52.972;6.482;2022-12-29T15:02:19;11.80;;;2.13;;
57217;SDS011;43078;52.972;6.482;2022-12-29T15:04:47;13.00;;;2.17;;
57217;SDS011;43078;52.972;6.482;2022-12-29T15:07:13;13.50;;;2.28;;
57217;SDS011;43078;52.972;6.482;2022-12-29T15:09:43;17.08;;;2.42;;
57217;SDS011;43078;52.972;6.482;2022-12-29T15:14:49;11.80;;;2.20;;
57217;SDS011;43078;52.972;6.482;2022-12-29T15:17:23;12.60;;;2.08;;
57217;SDS011;43078;52.972;6.482;2022-12-29T15:19:51;12.55;;;2.42;;
57217;SDS011;43078;52.972;6.482;2022-12-29T15:22:17;11.13;;;2.08;;
57217;SDS011;43078;52.972;6.482;2022-12-29T15:24:43;14.13;;;2.10;;
57217;SDS011;43078;52.972;6.482;2022-12-29T15:27:10;14.65;;;2.50;;
57217;SDS011;43078;52.972;6.482;2022-12-29T15:29:41;14.95;;;2.60;;
57217;SDS011;43078;52.972;6.482;2022-12-29T15:34:49;14.32;;;2.30;;
57217;SDS011;43078;52.972;6.482;2022-12-29T15:37:23;13.90;;;2.22;;
57217;SDS011;43078;52.972;6.482;2022-12-29T15:39:51;15.10;;;2.58;;
57217;SDS011;43078;52.972;6.482;2022-12-29T15:44:52;13.70;;;2.55;;
57217;SDS011;43078;52.972;6.482;2022-12-29T15:49:49;11.85;;;2.10;;
57217;SDS011;43078;52.972;6.482;2022-12-29T15:52:17;10.18;;;2.10;;
57217;SDS011;43078;52.972;6.482;2022-12-29T15:54:56;15.57;;;2.40;;
57217;SDS011;43078;52.972;6.482;2022-12-29T15:57:41;12.68;;;2.40;;
57217;SDS011;43078;52.972;6.482;2022-12-29T16:00:35;10.98;;;1.98;;
57217;SDS011;43078;52.972;6.482;2022-12-29T16:03:30;12.82;;;2.45;;
57217;SDS011;43078;52.972;6.482;2022-12-29T16:09:43;11.85;;;2.47;;
57217;SDS011;43078;52.972;6.482;2022-12-29T16:12:22;17.38;;;3.10;;
57217;SDS011;43078;52.972;6.482;2022-12-29T16:14:57;14.43;;;2.50;;
57217;SDS011;43078;52.972;6.482;2022-12-29T16:20:32;14.38;;;2.47;;
57217;SDS011;43078;52.972;6.482;2022-12-29T16:29:56;12.48;;;2.63;;
57217;SDS011;43078;52.972;6.482;2022-12-29T16:36:29;9.35;;;2.40;;
57217;SDS011;43078;52.972;6.482;2022-12-29T16:39:43;13.63;;;2.65;;
57217;SDS011;43078;52.972;6.482;2022-12-29T16:45:33;10.00;;;2.50;;
57217;SDS011;43078;52.972;6.482;2022-12-29T16:50:33;7.78;;;1.70;;
57217;SDS011;43078;52.972;6.482;2022-12-29T16:53:01;4.72;;;1.20;;
57217;SDS011;43078;52.972;6.482;2022-12-29T16:55:28;8.35;;;1.58;;
57217;SDS011;43078;52.972;6.482;2022-12-29T16:57:54;5.50;;;1.20;;
57217;SDS011;43078;52.972;6.482;2022-12-29T17:00:29;5.45;;;0.93;;
57217;SDS011;43078;52.972;6.482;2022-12-29T17:02:59;8.13;;;1.63;;
57217;SDS011;43078;52.972;6.482;2022-12-29T17:05:26;5.13;;;1.02;;
57217;SDS011;43078;52.972;6.482;2022-12-29T17:07:52;4.88;;;0.95;;
57217;SDS011;43078;52.972;6.482;2022-12-29T17:10:17;4.93;;;1.05;;
57217;SDS011;43078;52.972;6.482;2022-12-29T17:12:46;4.80;;;1.30;;
57217;SDS011;43078;52.972;6.482;2022-12-29T17:15:21;6.15;;;1.20;;
57217;SDS011;43078;52.972;6.482;2022-12-29T17:17:51;6.40;;;1.30;;
57217;SDS011;43078;52.972;6.482;2022-12-29T17:20:23;6.68;;;1.20;;
57217;SDS011;43078;52.972;6.482;2022-12-29T17:22:51;7.45;;;1.38;;
57217;SDS011;43078;52.972;6.482;2022-12-29T17:28:07;9.18;;;1.40;;
57217;SDS011;43078;52.972;6.482;2022-12-29T17:30:58;8.68;;;1.60;;
57217;SDS011;43078;52.972;6.482;2022-12-29T17:33:26;8.82;;;1.20;;
57217;SDS011;43078;52.972;6.482;2022-12-29T17:35:54;9.35;;;1.60;;
57217;SDS011;43078;52.972;6.482;2022-12-29T17:38:21;9.90;;;1.92;;
57217;SDS011;43078;52.972;6.482;2022-12-29T17:40:54;9.00;;;1.92;;
57217;SDS011;43078;52.972;6.482;2022-12-29T17:43:20;6.28;;;1.33;;
57217;SDS011;43078;52.972;6.482;2022-12-29T17:45:48;9.10;;;1.70;;